sensor_id;sensor_type;location;lat;lon;timestamp;P1;durP1;ratioP1;P2;durP2;ratioP2
26516;SDS011;14190;51.342;6.338;2023-05-10T00:00:17;35.08;;;22.55;;
26516;SDS011;14190;51.342;6.338;2023-05-10T00:02:45;36.75;;;23.27;;
26516;SDS011;14190;51.342;6.338;2023-05-10T00:05:12;34.78;;;22.10;;
26516;SDS011;14190;51.342;6.338;2023-05-10T00:07:40;41.23;;;23.60;;
26516;SDS011;14190;51.342;6.338;2023-05-10T00:10:09;36.85;;;23.22;;
26516;SDS011;14190;51.342;6.338;2023-05-10T00:12:36;32.80;;;22.30;;
26516;SDS011;14190;51.342;6.338;2023-05-10T00:15:04;37.08;;;22.37;;
26516;SDS011;14190;51.342;6.338;2023-05-10T00:17:32;30.30;;;21.27;;
26516;SDS011;14190;51.342;6.338;2023-05-10T00:19:59;34.60;;;20.88;;
26516;SDS011;14190;51.342;6.338;2023-05-10T00:22:26;34.63;;;21.95;;
26516;SDS011;14190;51.342;6.338;2023-05-10T00:24:54;35.95;;;22.07;;
26516;SDS011;14190;51.342;6.338;2023-05-10T00:27:21;36.35;;;21.37;;
26516;SDS011;14190;51.342;6.338;2023-05-10T00:29:48;38.65;;;22.73;;
26516;SDS011;14190;51.342;6.338;2023-05-10T00:32:16;42.55;;;23.57;;
26516;SDS011;14190;51.342;6.338;2023-05-10T00:34:43;36.60;;;21.48;;
26516;SDS011;14190;51.342;6.338;2023-05-10T00:37:11;39.50;;;21.93;;
26516;SDS011;14190;51.342;6.338;2023-05-10T00:39:38;38.13;;;21.62;;
26516;SDS011;14190;51.342;6.338;2023-05-10T00:42:06;38.83;;;20.70;;
26516;SDS011;14190;51.342;6.338;2023-05-10T00:44:33;40.45;;;23.38;;
26516;SDS011;14190;51.342;6.338;2023-05-10T00:47:01;35.05;;;21.52;;
26516;SDS011;14190;51.342;6.338;2023-05-10T00:49:28;33.60;;;20.37;;
26516;SDS011;14190;51.342;6.338;2023-05-10T00:51:56;30.27;;;18.23;;
26516;SDS011;14190;51.342;6.338;2023-05-10T00:54:23;26.85;;;16.50;;
26516;SDS011;14190;51.342;6.338;2023-05-10T00:56:51;31.95;;;17.80;;
26516;SDS011;14190;51.342;6.338;2023-05-10T00:59:18;30.55;;;17.87;;
26516;SDS011;14190;51.342;6.338;2023-05-10T01:01:46;27.93;;;18.02;;
26516;SDS011;14190;51.342;6.338;2023-05-10T01:04:14;28.80;;;17.85;;
26516;SDS011;14190;51.342;6.338;2023-05-10T01:06:42;26.80;;;17.42;;
26516;SDS011;14190;51.342;6.338;2023-05-10T01:09:09;25.77;;;16.12;;
26516;SDS011;14190;51.342;6.338;2023-05-10T01:11:38;28.55;;;15.95;;
26516;SDS011;14190;51.342;6.338;2023-05-10T01:14:06;25.48;;;16.80;;
26516;SDS011;14190;51.342;6.338;2023-05-10T01:16:37;29.20;;;15.50;;
26516;SDS011;14190;51.342;6.338;2023-05-10T01:19:06;23.20;;;15.63;;
26516;SDS011;14190;51.342;6.338;2023-05-10T01:21:46;20.88;;;14.13;;
26516;SDS011;14190;51.342;6.338;2023-05-10T01:29:18;29.82;;;16.80;;
26516;SDS011;14190;51.342;6.338;2023-05-10T01:34:34;21.45;;;15.25;;
26516;SDS011;14190;51.342;6.338;2023-05-10T01:37:02;26.70;;;14.65;;
26516;SDS011;14190;51.342;6.338;2023-05-10T01:42:17;26.35;;;16.57;;
26516;SDS011;14190;51.342;6.338;2023-05-10T01:50:01;27.65;;;16.12;;
26516;SDS011;14190;51.342;6.338;2023-05-10T01:52:36;21.93;;;15.60;;
26516;SDS011;14190;51.342;6.338;2023-05-10T01:55:01;25.05;;;15.75;;
26516;SDS011;14190;51.342;6.338;2023-05-10T01:57:32;26.57;;;14.90;;
26516;SDS011;14190;51.342;6.338;2023-05-10T01:59:58;22.10;;;14.38;;
26516;SDS011;14190;51.342;6.338;2023-05-10T02:02:27;26.17;;;16.48;;
26516;SDS011;14190;51.342;6.338;2023-05-10T02:04:55;24.82;;;16.27;;
26516;SDS011;14190;51.342;6.338;2023-05-10T02:07:24;23.25;;;15.25;;
26516;SDS011;14190;51.342;6.338;2023-05-10T02:09:51;21.93;;;14.87;;
26516;SDS011;14190;51.342;6.338;2023-05-10T02:12:20;26.52;;;18.87;;
26516;SDS011;14190;51.342;6.338;2023-05-10T02:14:48;25.08;;;16.95;;
26516;SDS011;14190;51.342;6.338;2023-05-10T02:17:17;28.23;;;18.02;;
26516;SDS011;14190;51.342;6.338;2023-05-10T02:19:45;33.53;;;19.20;;
26516;SDS011;14190;51.342;6.338;2023-05-10T02:22:14;33.65;;;21.42;;
26516;SDS011;14190;51.342;6.338;2023-05-10T02:24:42;34.45;;;20.85;;
26516;SDS011;14190;51.342;6.338;2023-05-10T02:27:10;30.05;;;19.45;;
26516;SDS011;14190;51.342;6.338;2023-05-10T02:29:39;33.23;;;20.23;;
26516;SDS011;14190;51.342;6.338;2023-05-10T02:32:06;41.30;;;23.87;;
26516;SDS011;14190;51.342;6.338;2023-05-10T02:34:35;40.50;;;23.30;;
26516;SDS011;14190;51.342;6.338;2023-05-10T02:37:03;35.25;;;20.90;;
26516;SDS011;14190;51.342;6.338;2023-05-10T02:39:32;38.90;;;22.00;;
26516;SDS011;14190;51.342;6.338;2023-05-10T02:42:00;38.60;;;21.55;;
26516;SDS011;14190;51.342;6.338;2023-05-10T02:44:28;39.23;;;22.93;;
26516;SDS011;14190;51.342;6.338;2023-05-10T02:46:57;38.55;;;22.58;;
26516;SDS011;14190;51.342;6.338;2023-05-10T02:49:24;38.42;;;22.75;;
26516;SDS011;14190;51.342;6.338;2023-05-10T02:51:54;39.70;;;22.40;;
26516;SDS011;14190;51.342;6.338;2023-05-10T02:54:23;50.55;;;25.72;;
26516;SDS011;14190;51.342;6.338;2023-05-10T02:56:57;45.88;;;23.77;;
26516;SDS011;14190;51.342;6.338;2023-05-10T02:59:22;47.20;;;24.47;;
26516;SDS011;14190;51.342;6.338;2023-05-10T03:01:49;47.78;;;25.85;;
26516;SDS011;14190;51.342;6.338;2023-05-10T03:04:17;51.80;;;25.92;;
26516;SDS011;14190;51.342;6.338;2023-05-10T03:06:44;53.73;;;27.37;;
26516;SDS011;14190;51.342;6.338;2023-05-10T03:09:12;49.30;;;26.50;;
26516;SDS011;14190;51.342;6.338;2023-05-10T03:11:44;60.48;;;30.75;;
26516;SDS011;14190;51.342;6.338;2023-05-10T03:14:23;49.93;;;28.32;;
26516;SDS011;14190;51.342;6.338;2023-05-10T03:19:39;57.17;;;29.32;;
26516;SDS011;14190;51.342;6.338;2023-05-10T03:22:05;59.53;;;30.15;;
26516;SDS011;14190;51.342;6.338;2023-05-10T03:24:34;58.10;;;30.35;;
26516;SDS011;14190;51.342;6.338;2023-05-10T03:27:03;58.87;;;31.50;;
26516;SDS011;14190;51.342;6.338;2023-05-10T03:29:31;64.00;;;32.15;;
26516;SDS011;14190;51.342;6.338;2023-05-10T03:31:59;67.03;;;32.85;;
26516;SDS011;14190;51.342;6.338;2023-05-10T03:34:28;63.87;;;33.00;;
26516;SDS011;14190;51.342;6.338;2023-05-10T03:36:57;67.58;;;34.48;;
26516;SDS011;14190;51.342;6.338;2023-05-10T03:39:25;72.27;;;33.80;;
26516;SDS011;14190;51.342;6.338;2023-05-10T03:41:54;70.45;;;35.55;;
26516;SDS011;14190;51.342;6.338;2023-05-10T03:44:21;71.17;;;35.65;;
26516;SDS011;14190;51.342;6.338;2023-05-10T03:46:48;78.42;;;38.92;;
26516;SDS011;14190;51.342;6.338;2023-05-10T03:49:16;74.75;;;37.65;;
26516;SDS011;14190;51.342;6.338;2023-05-10T03:51:44;77.32;;;38.58;;
26516;SDS011;14190;51.342;6.338;2023-05-10T03:54:11;79.90;;;39.00;;
26516;SDS011;14190;51.342;6.338;2023-05-10T03:56:40;79.90;;;40.17;;
26516;SDS011;14190;51.342;6.338;2023-05-10T03:59:08;77.35;;;40.30;;
26516;SDS011;14190;51.342;6.338;2023-05-10T04:01:36;79.53;;;41.98;;
26516;SDS011;14190;51.342;6.338;2023-05-10T04:04:03;85.30;;;43.02;;
26516;SDS011;14190;51.342;6.338;2023-05-10T04:06:31;82.70;;;42.73;;
26516;SDS011;14190;51.342;6.338;2023-05-10T04:08:58;75.90;;;39.15;;
26516;SDS011;14190;51.342;6.338;2023-05-10T04:11:27;77.82;;;40.00;;
26516;SDS011;14190;51.342;6.338;2023-05-10T04:13:55;83.97;;;42.25;;
26516;SDS011;14190;51.342;6.338;2023-05-10T04:16:22;74.30;;;39.20;;
26516;SDS011;14190;51.342;6.338;2023-05-10T04:18:50;91.15;;;41.40;;
26516;SDS011;14190;51.342;6.338;2023-05-10T04:21:17;72.67;;;38.50;;
26516;SDS011;14190;51.342;6.338;2023-05-10T04:23:44;72.55;;;38.23;;
26516;SDS011;14190;51.342;6.338;2023-05-10T04:26:12;72.20;;;40.08;;
26516;SDS011;14190;51.342;6.338;2023-05-10T04:28:40;66.17;;;38.15;;
26516;SDS011;14190;51.342;6.338;2023-05-10T04:31:08;70.75;;;39.55;;
26516;SDS011;14190;51.342;6.338;2023-05-10T04:33:35;71.35;;;38.48;;
26516;SDS011;14190;51.342;6.338;2023-05-10T04:36:03;71.02;;;38.08;;
26516;SDS011;14190;51.342;6.338;2023-05-10T04:38:31;72.75;;;37.93;;
26516;SDS011;14190;51.342;6.338;2023-05-10T04:41:05;72.95;;;39.40;;
26516;SDS011;14190;51.342;6.338;2023-05-10T04:43:32;74.07;;;40.25;;
26516;SDS011;14190;51.342;6.338;2023-05-10T04:46:00;75.75;;;40.92;;
26516;SDS011;14190;51.342;6.338;2023-05-10T04:48:27;76.72;;;39.70;;
26516;SDS011;14190;51.342;6.338;2023-05-10T04:50:55;80.62;;;38.30;;
26516;SDS011;14190;51.342;6.338;2023-05-10T04:53:22;88.78;;;40.88;;
26516;SDS011;14190;51.342;6.338;2023-05-10T04:55:50;75.67;;;40.90;;
26516;SDS011;14190;51.342;6.338;2023-05-10T04:58:17;87.50;;;42.00;;
26516;SDS011;14190;51.342;6.338;2023-05-10T05:00:44;84.65;;;40.90;;
26516;SDS011;14190;51.342;6.338;2023-05-10T05:03:12;87.17;;;42.43;;
26516;SDS011;14190;51.342;6.338;2023-05-10T05:05:39;93.27;;;45.28;;
26516;SDS011;14190;51.342;6.338;2023-05-10T05:08:07;104.12;;;45.65;;
26516;SDS011;14190;51.342;6.338;2023-05-10T05:10:34;96.87;;;45.63;;
26516;SDS011;14190;51.342;6.338;2023-05-10T05:13:01;98.72;;;44.27;;
26516;SDS011;14190;51.342;6.338;2023-05-10T05:15:29;100.82;;;44.93;;
26516;SDS011;14190;51.342;6.338;2023-05-10T05:17:57;92.12;;;43.45;;
26516;SDS011;14190;51.342;6.338;2023-05-10T05:20:24;98.97;;;44.88;;
26516;SDS011;14190;51.342;6.338;2023-05-10T05:22:51;107.75;;;47.50;;
26516;SDS011;14190;51.342;6.338;2023-05-10T05:25:19;91.57;;;44.80;;
26516;SDS011;14190;51.342;6.338;2023-05-10T05:27:46;94.40;;;44.30;;
26516;SDS011;14190;51.342;6.338;2023-05-10T05:30:14;91.40;;;43.05;;
26516;SDS011;14190;51.342;6.338;2023-05-10T05:32:41;100.12;;;45.00;;
26516;SDS011;14190;51.342;6.338;2023-05-10T05:35:08;108.12;;;51.37;;
26516;SDS011;14190;51.342;6.338;2023-05-10T05:37:36;99.87;;;47.17;;
26516;SDS011;14190;51.342;6.338;2023-05-10T05:40:03;98.33;;;46.98;;
26516;SDS011;14190;51.342;6.338;2023-05-10T05:42:31;112.62;;;47.58;;
26516;SDS011;14190;51.342;6.338;2023-05-10T05:44:59;109.45;;;48.90;;
26516;SDS011;14190;51.342;6.338;2023-05-10T05:47:26;104.23;;;46.98;;
26516;SDS011;14190;51.342;6.338;2023-05-10T05:49:53;107.60;;;48.00;;
26516;SDS011;14190;51.342;6.338;2023-05-10T05:52:21;120.80;;;49.53;;
26516;SDS011;14190;51.342;6.338;2023-05-10T05:54:49;112.00;;;49.03;;
26516;SDS011;14190;51.342;6.338;2023-05-10T05:57:16;100.30;;;45.20;;
26516;SDS011;14190;51.342;6.338;2023-05-10T05:59:43;115.40;;;47.43;;
26516;SDS011;14190;51.342;6.338;2023-05-10T06:02:12;106.80;;;47.23;;
26516;SDS011;14190;51.342;6.338;2023-05-10T06:04:39;137.32;;;50.63;;
26516;SDS011;14190;51.342;6.338;2023-05-10T06:07:06;111.57;;;48.25;;
26516;SDS011;14190;51.342;6.338;2023-05-10T06:09:34;101.22;;;45.80;;
26516;SDS011;14190;51.342;6.338;2023-05-10T06:12:01;119.85;;;47.10;;
26516;SDS011;14190;51.342;6.338;2023-05-10T06:14:29;94.55;;;43.73;;
26516;SDS011;14190;51.342;6.338;2023-05-10T06:16:56;97.85;;;42.95;;
26516;SDS011;14190;51.342;6.338;2023-05-10T06:19:25;93.85;;;43.80;;
26516;SDS011;14190;51.342;6.338;2023-05-10T06:21:52;106.87;;;43.92;;
26516;SDS011;14190;51.342;6.338;2023-05-10T06:24:20;109.40;;;44.23;;
26516;SDS011;14190;51.342;6.338;2023-05-10T06:26:48;99.40;;;41.33;;
26516;SDS011;14190;51.342;6.338;2023-05-10T06:29:16;104.97;;;43.30;;
26516;SDS011;14190;51.342;6.338;2023-05-10T06:31:43;109.30;;;45.12;;
26516;SDS011;14190;51.342;6.338;2023-05-10T06:34:11;114.25;;;45.83;;
26516;SDS011;14190;51.342;6.338;2023-05-10T06:36:39;107.20;;;44.13;;
26516;SDS011;14190;51.342;6.338;2023-05-10T06:39:07;115.25;;;48.30;;
26516;SDS011;14190;51.342;6.338;2023-05-10T06:41:34;112.97;;;46.83;;
26516;SDS011;14190;51.342;6.338;2023-05-10T06:44:02;131.87;;;48.20;;
26516;SDS011;14190;51.342;6.338;2023-05-10T06:46:30;116.82;;;49.03;;
26516;SDS011;14190;51.342;6.338;2023-05-10T06:48:57;123.25;;;49.33;;
26516;SDS011;14190;51.342;6.338;2023-05-10T06:51:25;108.12;;;48.83;;
26516;SDS011;14190;51.342;6.338;2023-05-10T06:53:52;119.50;;;49.90;;
26516;SDS011;14190;51.342;6.338;2023-05-10T06:56:21;108.67;;;47.98;;
26516;SDS011;14190;51.342;6.338;2023-05-10T06:58:49;106.20;;;46.90;;
26516;SDS011;14190;51.342;6.338;2023-05-10T07:01:16;108.72;;;47.48;;
26516;SDS011;14190;51.342;6.338;2023-05-10T07:03:44;118.10;;;48.60;;
26516;SDS011;14190;51.342;6.338;2023-05-10T07:06:11;108.70;;;47.93;;
26516;SDS011;14190;51.342;6.338;2023-05-10T07:08:39;105.85;;;47.98;;
26516;SDS011;14190;51.342;6.338;2023-05-10T07:11:06;102.38;;;44.55;;
26516;SDS011;14190;51.342;6.338;2023-05-10T07:13:34;106.87;;;45.63;;
26516;SDS011;14190;51.342;6.338;2023-05-10T07:16:02;91.92;;;43.90;;
26516;SDS011;14190;51.342;6.338;2023-05-10T07:18:30;96.60;;;45.90;;
26516;SDS011;14190;51.342;6.338;2023-05-10T07:20:58;89.52;;;44.75;;
26516;SDS011;14190;51.342;6.338;2023-05-10T07:23:25;92.47;;;42.78;;
26516;SDS011;14190;51.342;6.338;2023-05-10T07:25:52;87.62;;;43.25;;
26516;SDS011;14190;51.342;6.338;2023-05-10T07:28:20;89.67;;;43.00;;
26516;SDS011;14190;51.342;6.338;2023-05-10T07:30:47;94.62;;;45.55;;
26516;SDS011;14190;51.342;6.338;2023-05-10T07:33:15;91.35;;;43.02;;
26516;SDS011;14190;51.342;6.338;2023-05-10T07:35:43;86.85;;;43.75;;
26516;SDS011;14190;51.342;6.338;2023-05-10T07:38:10;94.87;;;44.03;;
26516;SDS011;14190;51.342;6.338;2023-05-10T07:40:38;84.00;;;43.33;;
26516;SDS011;14190;51.342;6.338;2023-05-10T07:43:06;80.15;;;42.25;;
26516;SDS011;14190;51.342;6.338;2023-05-10T07:45:33;82.25;;;42.53;;
26516;SDS011;14190;51.342;6.338;2023-05-10T07:48:01;67.80;;;40.28;;
26516;SDS011;14190;51.342;6.338;2023-05-10T07:50:28;67.42;;;39.15;;
26516;SDS011;14190;51.342;6.338;2023-05-10T07:52:55;72.27;;;38.10;;
26516;SDS011;14190;51.342;6.338;2023-05-10T07:55:23;65.32;;;37.88;;
26516;SDS011;14190;51.342;6.338;2023-05-10T07:57:50;70.08;;;37.98;;
26516;SDS011;14190;51.342;6.338;2023-05-10T08:00:18;71.40;;;38.35;;
26516;SDS011;14190;51.342;6.338;2023-05-10T08:02:46;76.82;;;40.23;;
26516;SDS011;14190;51.342;6.338;2023-05-10T08:05:14;67.53;;;36.38;;
26516;SDS011;14190;51.342;6.338;2023-05-10T08:07:41;73.17;;;37.08;;
26516;SDS011;14190;51.342;6.338;2023-05-10T08:10:08;67.22;;;37.15;;
26516;SDS011;14190;51.342;6.338;2023-05-10T08:12:37;64.37;;;38.13;;
26516;SDS011;14190;51.342;6.338;2023-05-10T08:15:05;56.58;;;34.20;;
26516;SDS011;14190;51.342;6.338;2023-05-10T08:17:33;52.88;;;32.53;;
26516;SDS011;14190;51.342;6.338;2023-05-10T08:20:00;55.10;;;32.88;;
26516;SDS011;14190;51.342;6.338;2023-05-10T08:22:28;53.30;;;30.75;;
26516;SDS011;14190;51.342;6.338;2023-05-10T08:24:55;50.25;;;30.43;;
26516;SDS011;14190;51.342;6.338;2023-05-10T08:27:23;43.50;;;27.98;;
26516;SDS011;14190;51.342;6.338;2023-05-10T08:29:50;47.08;;;28.70;;
26516;SDS011;14190;51.342;6.338;2023-05-10T08:32:17;42.53;;;27.30;;
26516;SDS011;14190;51.342;6.338;2023-05-10T08:34:45;45.67;;;27.48;;
26516;SDS011;14190;51.342;6.338;2023-05-10T08:37:12;47.35;;;29.87;;
26516;SDS011;14190;51.342;6.338;2023-05-10T08:39:39;52.00;;;29.37;;
26516;SDS011;14190;51.342;6.338;2023-05-10T08:42:07;49.27;;;29.18;;
26516;SDS011;14190;51.342;6.338;2023-05-10T08:44:35;47.95;;;29.30;;
26516;SDS011;14190;51.342;6.338;2023-05-10T08:47:06;48.23;;;29.25;;
26516;SDS011;14190;51.342;6.338;2023-05-10T08:49:36;51.05;;;29.32;;
26516;SDS011;14190;51.342;6.338;2023-05-10T08:52:04;53.40;;;32.10;;
26516;SDS011;14190;51.342;6.338;2023-05-10T08:54:33;46.87;;;30.30;;
26516;SDS011;14190;51.342;6.338;2023-05-10T08:57:01;44.33;;;29.70;;
26516;SDS011;14190;51.342;6.338;2023-05-10T08:59:29;44.75;;;28.80;;
26516;SDS011;14190;51.342;6.338;2023-05-10T09:02:00;55.03;;;30.55;;
26516;SDS011;14190;51.342;6.338;2023-05-10T09:04:28;49.48;;;31.12;;
26516;SDS011;14190;51.342;6.338;2023-05-10T09:06:56;45.35;;;28.90;;
26516;SDS011;14190;51.342;6.338;2023-05-10T09:09:24;53.78;;;30.12;;
26516;SDS011;14190;51.342;6.338;2023-05-10T09:11:52;53.25;;;30.37;;
26516;SDS011;14190;51.342;6.338;2023-05-10T09:14:20;49.00;;;28.55;;
26516;SDS011;14190;51.342;6.338;2023-05-10T09:16:47;51.00;;;29.35;;
26516;SDS011;14190;51.342;6.338;2023-05-10T09:19:15;51.02;;;28.83;;
26516;SDS011;14190;51.342;6.338;2023-05-10T09:21:42;52.43;;;29.98;;
26516;SDS011;14190;51.342;6.338;2023-05-10T09:24:10;46.42;;;28.87;;
26516;SDS011;14190;51.342;6.338;2023-05-10T09:26:47;46.60;;;28.73;;
26516;SDS011;14190;51.342;6.338;2023-05-10T09:29:06;41.05;;;28.32;;
26516;SDS011;14190;51.342;6.338;2023-05-10T09:31:44;51.73;;;28.20;;
26516;SDS011;14190;51.342;6.338;2023-05-10T09:34:17;47.58;;;27.17;;
26516;SDS011;14190;51.342;6.338;2023-05-10T09:36:51;48.73;;;28.05;;
26516;SDS011;14190;51.342;6.338;2023-05-10T09:39:19;51.80;;;26.62;;
26516;SDS011;14190;51.342;6.338;2023-05-10T09:41:46;46.42;;;27.75;;
26516;SDS011;14190;51.342;6.338;2023-05-10T09:44:16;53.92;;;33.42;;
26516;SDS011;14190;51.342;6.338;2023-05-10T09:46:48;36.38;;;25.25;;
26516;SDS011;14190;51.342;6.338;2023-05-10T09:49:14;43.28;;;26.95;;
26516;SDS011;14190;51.342;6.338;2023-05-10T09:51:42;39.50;;;23.12;;
26516;SDS011;14190;51.342;6.338;2023-05-10T09:54:13;39.20;;;23.92;;
26516;SDS011;14190;51.342;6.338;2023-05-10T09:56:41;33.33;;;21.50;;
26516;SDS011;14190;51.342;6.338;2023-05-10T09:59:11;34.38;;;21.65;;
26516;SDS011;14190;51.342;6.338;2023-05-10T10:01:39;36.98;;;22.32;;
26516;SDS011;14190;51.342;6.338;2023-05-10T10:04:07;41.48;;;22.37;;
26516;SDS011;14190;51.342;6.338;2023-05-10T10:06:35;38.02;;;22.15;;
26516;SDS011;14190;51.342;6.338;2023-05-10T10:09:03;34.20;;;23.00;;
26516;SDS011;14190;51.342;6.338;2023-05-10T10:11:31;35.73;;;22.70;;
26516;SDS011;14190;51.342;6.338;2023-05-10T10:13:59;35.00;;;22.82;;
26516;SDS011;14190;51.342;6.338;2023-05-10T10:16:27;37.93;;;22.20;;
26516;SDS011;14190;51.342;6.338;2023-05-10T10:18:54;33.18;;;21.82;;
26516;SDS011;14190;51.342;6.338;2023-05-10T10:21:22;31.68;;;21.73;;
26516;SDS011;14190;51.342;6.338;2023-05-10T10:23:50;40.85;;;23.15;;
26516;SDS011;14190;51.342;6.338;2023-05-10T10:26:19;28.95;;;20.37;;
26516;SDS011;14190;51.342;6.338;2023-05-10T10:28:49;31.90;;;19.82;;
26516;SDS011;14190;51.342;6.338;2023-05-10T10:31:23;32.13;;;21.02;;
26516;SDS011;14190;51.342;6.338;2023-05-10T10:33:51;25.90;;;20.52;;
26516;SDS011;14190;51.342;6.338;2023-05-10T10:36:17;25.02;;;19.42;;
26516;SDS011;14190;51.342;6.338;2023-05-10T10:41:30;29.12;;;19.85;;
26516;SDS011;14190;51.342;6.338;2023-05-10T10:49:19;29.63;;;22.52;;
26516;SDS011;14190;51.342;6.338;2023-05-10T10:54:32;34.55;;;23.73;;
26516;SDS011;14190;51.342;6.338;2023-05-10T10:57:12;29.77;;;22.07;;
26516;SDS011;14190;51.342;6.338;2023-05-10T10:59:43;37.50;;;24.18;;
26516;SDS011;14190;51.342;6.338;2023-05-10T11:02:31;34.13;;;22.52;;
26516;SDS011;14190;51.342;6.338;2023-05-10T11:04:42;33.83;;;24.63;;
26516;SDS011;14190;51.342;6.338;2023-05-10T11:07:18;31.68;;;23.25;;
26516;SDS011;14190;51.342;6.338;2023-05-10T11:09:49;33.48;;;24.92;;
26516;SDS011;14190;51.342;6.338;2023-05-10T11:12:16;37.60;;;25.75;;
26516;SDS011;14190;51.342;6.338;2023-05-10T11:14:49;38.90;;;26.55;;
26516;SDS011;14190;51.342;6.338;2023-05-10T11:17:22;29.35;;;22.73;;
26516;SDS011;14190;51.342;6.338;2023-05-10T11:20:08;31.05;;;22.22;;
26516;SDS011;14190;51.342;6.338;2023-05-10T11:22:58;32.25;;;23.73;;
26516;SDS011;14190;51.342;6.338;2023-05-10T11:25:05;24.70;;;19.98;;
26516;SDS011;14190;51.342;6.338;2023-05-10T11:27:36;30.20;;;22.82;;
26516;SDS011;14190;51.342;6.338;2023-05-10T11:30:04;31.97;;;21.65;;
26516;SDS011;14190;51.342;6.338;2023-05-10T11:32:31;26.48;;;21.45;;
26516;SDS011;14190;51.342;6.338;2023-05-10T11:34:59;29.48;;;21.45;;
26516;SDS011;14190;51.342;6.338;2023-05-10T11:37:28;26.35;;;19.77;;
26516;SDS011;14190;51.342;6.338;2023-05-10T11:39:56;26.25;;;17.95;;
26516;SDS011;14190;51.342;6.338;2023-05-10T11:42:24;23.87;;;18.27;;
26516;SDS011;14190;51.342;6.338;2023-05-10T11:44:51;25.82;;;19.02;;
26516;SDS011;14190;51.342;6.338;2023-05-10T11:47:18;20.92;;;17.98;;
26516;SDS011;14190;51.342;6.338;2023-05-10T11:49:47;25.25;;;18.48;;
26516;SDS011;14190;51.342;6.338;2023-05-10T11:52:15;21.95;;;18.00;;
26516;SDS011;14190;51.342;6.338;2023-05-10T11:54:51;34.60;;;22.10;;
26516;SDS011;14190;51.342;6.338;2023-05-10T11:57:19;29.40;;;20.00;;
26516;SDS011;14190;51.342;6.338;2023-05-10T11:59:47;28.17;;;18.55;;
26516;SDS011;14190;51.342;6.338;2023-05-10T12:02:14;29.40;;;21.75;;
26516;SDS011;14190;51.342;6.338;2023-05-10T12:04:41;54.60;;;37.73;;
26516;SDS011;14190;51.342;6.338;2023-05-10T12:07:09;34.53;;;24.85;;
26516;SDS011;14190;51.342;6.338;2023-05-10T12:09:36;39.15;;;30.17;;
26516;SDS011;14190;51.342;6.338;2023-05-10T12:12:04;42.15;;;30.00;;
26516;SDS011;14190;51.342;6.338;2023-05-10T12:14:33;32.10;;;22.98;;
26516;SDS011;14190;51.342;6.338;2023-05-10T12:17:00;30.60;;;22.42;;
26516;SDS011;14190;51.342;6.338;2023-05-10T12:19:27;31.45;;;23.05;;
26516;SDS011;14190;51.342;6.338;2023-05-10T12:21:55;30.90;;;23.38;;
26516;SDS011;14190;51.342;6.338;2023-05-10T12:24:23;37.28;;;24.75;;
26516;SDS011;14190;51.342;6.338;2023-05-10T12:26:51;36.30;;;25.97;;
26516;SDS011;14190;51.342;6.338;2023-05-10T12:29:19;50.03;;;37.78;;
26516;SDS011;14190;51.342;6.338;2023-05-10T12:31:50;56.88;;;36.15;;
26516;SDS011;14190;51.342;6.338;2023-05-10T12:36:53;40.60;;;30.05;;
26516;SDS011;14190;51.342;6.338;2023-05-10T12:39:20;40.63;;;27.87;;
26516;SDS011;14190;51.342;6.338;2023-05-10T12:41:47;36.80;;;28.05;;
26516;SDS011;14190;51.342;6.338;2023-05-10T12:44:15;37.45;;;28.47;;
26516;SDS011;14190;51.342;6.338;2023-05-10T12:46:42;35.13;;;26.33;;
26516;SDS011;14190;51.342;6.338;2023-05-10T12:49:10;34.88;;;25.40;;
26516;SDS011;14190;51.342;6.338;2023-05-10T12:51:37;37.58;;;27.07;;
26516;SDS011;14190;51.342;6.338;2023-05-10T12:54:04;32.42;;;25.80;;
26516;SDS011;14190;51.342;6.338;2023-05-10T12:56:32;35.78;;;24.02;;
26516;SDS011;14190;51.342;6.338;2023-05-10T12:58:59;34.95;;;25.20;;
26516;SDS011;14190;51.342;6.338;2023-05-10T13:01:26;37.17;;;23.92;;
26516;SDS011;14190;51.342;6.338;2023-05-10T13:03:54;30.15;;;24.40;;
26516;SDS011;14190;51.342;6.338;2023-05-10T13:06:21;32.50;;;23.95;;
26516;SDS011;14190;51.342;6.338;2023-05-10T13:08:48;39.95;;;27.05;;
26516;SDS011;14190;51.342;6.338;2023-05-10T13:11:16;36.40;;;27.32;;
26516;SDS011;14190;51.342;6.338;2023-05-10T13:13:43;31.20;;;24.45;;
26516;SDS011;14190;51.342;6.338;2023-05-10T13:16:11;36.13;;;26.95;;
26516;SDS011;14190;51.342;6.338;2023-05-10T13:18:38;34.27;;;24.02;;
26516;SDS011;14190;51.342;6.338;2023-05-10T13:21:06;35.95;;;28.75;;
26516;SDS011;14190;51.342;6.338;2023-05-10T13:23:34;32.10;;;24.85;;
26516;SDS011;14190;51.342;6.338;2023-05-10T13:26:01;29.57;;;25.32;;
26516;SDS011;14190;51.342;6.338;2023-05-10T13:28:28;26.35;;;22.35;;
26516;SDS011;14190;51.342;6.338;2023-05-10T13:30:56;22.55;;;16.25;;
26516;SDS011;14190;51.342;6.338;2023-05-10T13:33:24;24.00;;;17.75;;
26516;SDS011;14190;51.342;6.338;2023-05-10T13:35:51;24.35;;;17.73;;
26516;SDS011;14190;51.342;6.338;2023-05-10T13:38:18;21.82;;;18.67;;
26516;SDS011;14190;51.342;6.338;2023-05-10T13:40:46;19.92;;;17.35;;
26516;SDS011;14190;51.342;6.338;2023-05-10T13:43:13;20.02;;;15.23;;
26516;SDS011;14190;51.342;6.338;2023-05-10T13:45:41;23.98;;;16.57;;
26516;SDS011;14190;51.342;6.338;2023-05-10T13:48:08;24.43;;;18.60;;
26516;SDS011;14190;51.342;6.338;2023-05-10T13:50:36;27.05;;;17.17;;
26516;SDS011;14190;51.342;6.338;2023-05-10T13:53:03;21.50;;;16.75;;
26516;SDS011;14190;51.342;6.338;2023-05-10T13:55:31;20.65;;;15.93;;
26516;SDS011;14190;51.342;6.338;2023-05-10T13:57:59;18.73;;;15.85;;
26516;SDS011;14190;51.342;6.338;2023-05-10T14:00:26;22.93;;;17.07;;
26516;SDS011;14190;51.342;6.338;2023-05-10T14:02:53;22.15;;;17.57;;
26516;SDS011;14190;51.342;6.338;2023-05-10T14:05:21;24.75;;;19.90;;
26516;SDS011;14190;51.342;6.338;2023-05-10T14:07:49;38.30;;;33.48;;
26516;SDS011;14190;51.342;6.338;2023-05-10T14:10:17;28.95;;;24.67;;
26516;SDS011;14190;51.342;6.338;2023-05-10T14:12:44;23.07;;;18.52;;
26516;SDS011;14190;51.342;6.338;2023-05-10T14:15:11;22.30;;;16.02;;
26516;SDS011;14190;51.342;6.338;2023-05-10T14:17:39;21.75;;;17.35;;
26516;SDS011;14190;51.342;6.338;2023-05-10T14:20:07;22.55;;;16.40;;
26516;SDS011;14190;51.342;6.338;2023-05-10T14:22:34;22.62;;;18.15;;
26516;SDS011;14190;51.342;6.338;2023-05-10T14:25:02;19.00;;;15.78;;
26516;SDS011;14190;51.342;6.338;2023-05-10T14:27:29;18.20;;;14.30;;
26516;SDS011;14190;51.342;6.338;2023-05-10T14:29:57;22.13;;;15.75;;
26516;SDS011;14190;51.342;6.338;2023-05-10T14:32:24;25.37;;;15.80;;
26516;SDS011;14190;51.342;6.338;2023-05-10T14:34:53;25.60;;;20.12;;
26516;SDS011;14190;51.342;6.338;2023-05-10T14:37:20;12.95;;;9.58;;
26516;SDS011;14190;51.342;6.338;2023-05-10T14:39:48;10.80;;;7.70;;
26516;SDS011;14190;51.342;6.338;2023-05-10T14:42:15;14.40;;;9.18;;
26516;SDS011;14190;51.342;6.338;2023-05-10T14:44:42;12.85;;;9.40;;
26516;SDS011;14190;51.342;6.338;2023-05-10T14:47:10;12.15;;;8.43;;
26516;SDS011;14190;51.342;6.338;2023-05-10T14:49:37;10.93;;;7.37;;
26516;SDS011;14190;51.342;6.338;2023-05-10T14:52:04;10.55;;;8.18;;
26516;SDS011;14190;51.342;6.338;2023-05-10T14:54:32;12.03;;;8.30;;
26516;SDS011;14190;51.342;6.338;2023-05-10T14:57:01;10.63;;;8.30;;